Data for 07/11/2006

Time Sea-Level Adjusted Pressure Absolute Pressure Temperature Relative Humidity Dew Point   
(mb) (inHg) (mb) (inHg) (C) (F) (%) (C) (F)
00:05 1015 29.97 844 24.92 17.3 63.2 57 8.7 47.7
00:10 1015 29.97 844 24.92 17.6 63.7 56 8.8 47.8
00:15 1015 29.97 844 24.92 17.9 64.2 54 8.5 47.2
00:20 1015 29.97 844 24.92 18.1 64.6 54 8.9 48
00:25 1015 29.97 844 24.92 17.9 64.1 55 8.7 47.7
00:30 1015 29.97 844 24.92 17.7 63.9 56 8.8 47.8
00:35 1015 29.97 844 24.92 17.5 63.5 56 8.7 47.6
00:40 1015 29.97 845 24.95 17.4 63.3 56 8.6 47.4
00:45 1015 29.97 844 24.92 17.3 63.1 56 8.6 47.4
00:50 1015 29.97 844 24.92 17.1 62.8 57 8.5 47.4
00:55 1015 29.97 844 24.92 17 62.6 58 8.7 47.7
01:00 1015 29.97 845 24.95 16.8 62.3 58 8.6 47.5
01:05 1015 29.97 845 24.95 16.6 61.9 58 8.3 47
01:10 1015 29.97 845 24.95 16.6 61.9 57 8.1 46.5
01:15 1015 29.97 845 24.95 16.6 61.9 61 9.1 48.3
01:20 1015 29.97 845 24.95 16.6 61.9 56 8 46.4
01:25 1015 29.97 845 24.95 16.5 61.7 57 8 46.5
01:30 1015 29.97 845 24.95 16.5 61.7 56 7.8 46
01:35 1015 29.97 845 24.95 16.9 62.4 55 8 46.3
01:40 1015 29.97 845 24.95 16.7 62.1 56 8 46.5
01:45 1015 29.97 845 24.95 16.5 61.6 57 8 46.3
01:50 1015 29.97 845 24.95 16.4 61.6 58 8.2 46.8
01:55 1015 29.97 845 24.95 16.5 61.6 55 7.5 45.6
02:00 1016 30 845 24.95 16.4 61.4 56 7.6 45.6
02:05 1016 30 845 24.95 16.3 61.3 55 7.4 45.3
02:10 1016 30 845 24.95 16.3 61.3 62 8.9 48.1
02:15 1016 30 845 24.95 16.2 61.2 57 7.6 45.8
02:20 1016 30 845 24.95 15.7 60.3 59 7.9 46.2
02:25 1016 30 845 24.95 15.5 59.9 60 7.8 46
02:30 1016 30 845 24.95 15.6 60 59 7.8 46
02:35 1016 30 845 24.95 15.3 59.5 60 7.6 45.7
02:40 1016 30 845 24.95 15.2 59.3 60 7.6 45.7
02:45 1016 30 845 24.95 15.2 59.3 60 7.6 45.7
02:50 1016 30 845 24.95 15 59.1 61 7.6 45.6
02:55 1016 30 845 24.95 15 58.9 60 7.4 45.3
03:00 1016 30 845 24.95 15 59.1 61 7.6 45.7
03:05 1016 30 845 24.95 15 59 61 7.5 45.6
03:10 1016 30 845 24.95 15 59.1 66 8.7 47.6
03:15 1016 30 845 24.95 15 59.1 61 7.7 45.8
03:20 1016 30 845 24.95 14.8 58.6 61 7.5 45.5
03:25 1016 30 845 24.95 14.3 57.8 64 7.7 45.9
03:30 1016 30 845 24.95 14 57.2 65 7.5 45.5
03:35 1016 30 845 24.95 14.3 57.8 62 7.1 44.8
03:40 1016 30 845 24.95 15 58.9 59 7 44.7
03:45 1016 30 845 24.95 15 59 60 7.3 45.2
03:50 1016 30 845 24.95 14.6 58.2 61 7.2 44.9
03:55 1016 30 845 24.95 14.9 58.9 63 8.1 46.6
04:00 1016 30 845 24.95 15.1 59.1 58 7.1 44.7
04:05 1016 30 845 24.95 14.9 58.8 60 7.2 44.9
04:10 1016 30 845 24.95 14.7 58.5 60 7.2 44.9
04:15 1016 30 845 24.95 14.8 58.6 61 7.4 45.2
04:20 1016 30 845 24.95 14.8 58.7 60 7.1 44.8
04:25 1016 30 845 24.95 14.5 58.1 62 7.4 45.4
04:30 1016 30 845 24.95 13.9 57 65 7.5 45.6
04:35 1016 30 845 24.95 13.5 56.3 66 7.3 45.2
04:40 1016 30 845 24.95 13.4 56.1 66 7.3 45.1
04:45 1016 30 845 24.95 13.6 56.4 64 7 44.7
04:50 1016 30 845 24.95 13.8 56.9 63 7.1 44.7
04:55 1016 30 845 24.95 14.1 57.4 62 7.1 44.9
05:00 1016 30 845 24.95 14.3 57.7 62 7.2 45
05:05 1016 30 845 24.95 14.2 57.6 64 7.6 45.7
05:10 1016 30 846 24.98 13.7 56.7 65 7.4 45.3
05:15 1016 30 846 24.98 13.3 55.9 65 6.9 44.5
05:20 1017 30.03 846 24.98 13.5 56.3 64 6.9 44.5
05:25 1017 30.03 846 24.98 13.7 56.6 64 7.1 44.7
05:30 1017 30.03 846 24.98 13.7 56.6 65 7.2 45
05:35 1017 30.03 846 24.98 13.4 56.1 66 7.1 44.8
05:40 1017 30.03 846 24.98 13.3 56 66 7.2 44.9
05:45 1017 30.03 846 24.98 13.2 55.7 67 7.2 45
05:50 1017 30.03 846 24.98 13.2 55.8 68 7.4 45.3
05:55 1017 30.03 846 24.98 13.1 55.5 69 7.5 45.4
06:00 1017 30.03 846 24.98 13 55.4 69 7.4 45.3
06:05 1017 30.03 846 24.98 12.9 55.3 68 7.3 45.1
06:10 1017 30.03 846 24.98 13 55.4 68 7.3 45.1
06:15 1017 30.03 846 24.98 13.4 56.2 66 7.2 45
06:20 1017 30.03 846 24.98 13.8 56.8 64 7.1 44.8
06:25 1017 30.03 846 24.98 13.9 57 64 7.2 45
06:30 1017 30.03 846 24.98 14.1 57.4 63 7.2 45
06:35 1017 30.03 846 24.98 14.2 57.6 64 7.5 45.5
06:40 1017 30.03 846 24.98 14.5 58 62 7.3 45.1
06:45 1017 30.03 846 24.98 14.5 58.1 62 7.3 45.2
06:50 1017 30.03 846 24.98 14.7 58.4 61 7.3 45.2
06:55 1017 30.03 847 25.01 14.8 58.6 60 7.1 44.8
07:00 1017 30.03 847 25.01 15.2 59.3 64 8.5 47.3
07:05 1017 30.03 847 25.01 15.3 59.5 60 7.7 45.8
07:10 1017 30.03 847 25.01 15.3 59.5 58 7.2 44.9
07:15 1017 30.03 847 25.01 15.5 59.9 60 7.8 46
07:20 1017 30.03 847 25.01 15.6 60.1 64 8.9 48
07:25 1017 30.03 847 25.01 15.6 60 61 8.2 46.8
07:30 1017 30.03 847 25.01 15.7 60.3 60 8.1 46.5
07:35 1017 30.03 847 25.01 16.3 61.3 59 8.3 47
07:40 1017 30.03 847 25.01 16.6 61.8 56 7.9 46.2
07:45 1018 30.06 847 25.01 16.4 61.5 57 8 46.4
07:50 1017 30.03 847 25.01 16.7 62.1 58 8.4 47.1
07:55 1017 30.03 847 25.01 17.4 63.3 55 8.4 47.1
08:00 1017 30.03 847 25.01 17.9 64.2 53 8.2 46.8
08:05 1017 30.03 847 25.01 18.3 64.9 51 8.1 46.6
08:10 1018 30.06 847 25.01 18.4 65.2 50 7.9 46.3
08:15 1018 30.06 847 25.01 18.7 65.6 52 8.8 47.8
08:20 1018 30.06 847 25.01 19 66.1 51 8.7 47.6
08:25 1018 30.06 847 25.01 19 66.1 53 9.4 48.8
08:30 1018 30.06 847 25.01 19.5 67 50 8.9 48
08:35 1018 30.06 847 25.01 19.2 66.6 52 9.3 48.7
08:40 1018 30.06 847 25.01 19.5 67.1 49 8.6 47.5
08:45 1018 30.06 847 25.01 20 68 47 8.5 47.3
08:50 1018 30.06 847 25.01 20.3 68.6 47 8.7 47.6
08:55 1018 30.06 847 25.01 21.2 70.2 45 8.8 47.9
09:00 1018 30.06 847 25.01 21.9 71.4 42 8.7 47.7
09:05 1018 30.06 847 25.01 22.1 71.8 41 8.3 46.9
09:10 1018 30.06 847 25.01 23.1 73.5 38 8.1 46.6
09:15 1018 30.06 847 25.01 23.1 73.6 38 8.3 46.9
09:20 1018 30.06 847 25.01 23.2 73.8 38 8.1 46.7
09:25 1018 30.06 847 25.01 23.4 74.2 37 8.3 46.9
09:30 1018 30.06 847 25.01 24 75.2 35 7.7 45.8
09:35 1018 30.06 847 25.01 24.3 75.7 35 8 46.4
09:40 1018 30.06 847 25.01 24 75.1 37 8.5 47.4
09:45 1018 30.06 847 25.01 23.4 74 39 8.8 47.8
09:50 1018 30.06 847 25.01 23.2 73.8 37 8.1 46.5
09:55 1018 30.06 847 25.01 23.2 73.7 38 8.4 47.1
10:00 1018 30.06 847 25.01 23 73.3 39 8.4 47.2
10:05 1018 30.06 847 25.01 23.6 74.5 37 8.1 46.6
10:10 1018 30.06 847 25.01 24 75.2 37 8.7 47.6
10:15 1018 30.06 847 25.01 23.8 74.8 37 8.4 47.2
10:20 1018 30.06 847 25.01 23.9 75.1 36 8.3 46.9
10:25 1018 30.06 847 25.01 23.4 74.1 39 9 48.2
10:30 1018 30.06 847 25.01 23.3 73.9 40 9.2 48.6
10:35 1018 30.06 847 25.01 23.7 74.7 40 9.6 49.2
10:40 1018 30.06 847 25.01 24 75.1 41 10.2 50.3
10:45 1018 30.06 847 25.01 23.6 74.4 42 9.9 49.9
10:50 1018 30.06 847 25.01 23.6 74.4 41 9.6 49.3
10:55 1018 30.06 847 25.01 24.2 75.6 39 9.6 49.2
11:00 1018 30.06 847 25.01 24.9 76.8 36 9.2 48.6
11:05 1018 30.06 847 25.01 24.7 76.5 36 8.8 47.8
11:10 1018 30.06 847 25.01 24.8 76.6 35 8.7 47.6
11:15 1017 30.03 847 25.01 25.7 78.2 34 8.8 47.8
11:20 1017 30.03 847 25.01 26.3 79.4 34 9.3 48.7
11:25 1017 30.03 847 25.01 26.1 79 33 9 48.2
11:30 1017 30.03 847 25.01 25.6 78.1 34 8.9 48.1
11:35 1017 30.03 847 25.01 26.2 79.1 34 9.3 48.8
11:40 1017 30.03 847 25.01 26.7 80 33 9.2 48.6
11:45 1017 30.03 847 25.01 27.8 82 31 9.2 48.6
11:50 1017 30.03 846 24.98 28 82.3 30 9.2 48.5
11:55 1017 30.03 846 24.98 28.2 82.7 31 9.6 49.3
12:00 1017 30.03 846 24.98 28.8 83.8 28 8.7 47.6
12:05 1017 30.03 846 24.98 28.9 84 30 10 50
12:10 1017 30.03 846 24.98 28.1 82.6 28 8.3 47
12:15 1017 30.03 846 24.98 28.3 82.9 28 8.4 47.1
12:20 1017 30.03 846 24.98 29 84.3 27 8.7 47.6
12:25 1017 30.03 846 24.98 29.3 84.7 28 9.1 48.4
12:30 1017 30.03 846 24.98 30.1 86.2 25 8 46.4
12:35 1017 30.03 846 24.98 29.9 85.8 26 8.5 47.4
12:40 1017 30.03 846 24.98 30.2 86.3 25 8.1 46.6
12:45 1017 30.03 846 24.98 30.3 86.6 25 8.2 46.7
12:50 1017 30.03 846 24.98 30 86.1 26 8.8 47.8
12:55 1017 30.03 846 24.98 29.8 85.6 24 7.6 45.7
13:00 1017 30.03 846 24.98 30.5 86.8 24 7.7 45.8
13:05 1017 30.03 846 24.98 31 87.8 22 7.2 44.9
13:10 1017 30.03 846 24.98 30.9 87.7 23 7.4 45.4
13:15 1017 30.03 846 24.98 31.1 88 22 6.9 44.5
13:20 1016 30 846 24.98 31 87.9 22 7.1 44.7
13:25 1016 30 846 24.98 31.2 88.2 20 6.1 43
13:30 1016 30 846 24.98 31.4 88.6 21 6.7 44
13:35 1016 30 846 24.98 31.4 88.6 22 7.3 45.2
13:40 1016 30 846 24.98 31.7 89.1 20 6.5 43.7
13:45 1016 30 846 24.98 31.6 88.9 20 6.6 43.9
13:50 1016 30 846 24.98 30.9 87.7 22 7.3 45.1
13:55 1016 30 846 24.98 30.6 87.2 23 7.3 45.2
14:00 1016 30 846 24.98 30.1 86.1 23 7.2 45
14:05 1016 30 846 24.98 30.1 86.2 23 7.3 45.2
14:10 1016 30 846 24.98 30.7 87.3 21 6.4 43.5
14:15 1016 30 845 24.95 31.3 88.4 20 6 42.8
14:20 1016 30 845 24.95 30.8 87.4 20 5.8 42.4
14:25 1016 30 845 24.95 30.7 87.3 22 7.1 44.7
14:30 1016 30 845 24.95 30.7 87.3 21 6.4 43.5
14:35 1016 30 845 24.95 30.7 87.2 21 6.2 43.2
14:40 1016 30 845 24.95 30.2 86.4 20 5.3 41.5
14:45 1016 30 845 24.95 29.9 85.8 20 5.1 41.3
14:50 1016 30 845 24.95 30.3 86.5 18 4 39.2
14:55 1016 30 845 24.95 30.5 86.9 19 4.9 40.8
15:00 1016 30 845 24.95 31.2 88.1 19 5.4 41.7
15:05 1016 30 845 24.95 31.4 88.5 20 5.9 42.6
15:10 1016 30 845 24.95 30.8 87.5 19 4.8 40.6
15:15 1016 30 845 24.95 31.2 88.2 18 4.8 40.7
15:20 1016 30 845 24.95 30.6 87.2 18 4.1 39.4
15:25 1016 30 845 24.95 30.9 87.6 18 4 39.1
15:30 1016 30 845 24.95 31.4 88.6 18 4.5 40.2
15:35 1016 30 845 24.95 31.9 89.5 16 3.6 38.5
15:40 1016 30 845 24.95 31.8 89.3 18 4.8 40.6
15:45 1016 30 845 24.95 31.3 88.4 16 3.2 37.7
15:50 1015 29.97 845 24.95 30.8 87.4 18 4.1 39.4
15:55 1015 29.97 845 24.95 30.8 87.5 19 4.7 40.5
16:00 1016 30 845 24.95 30.9 87.5 18 4.6 40.2
16:05 1016 30 845 24.95 31 87.8 19 5.4 41.7
16:10 1016 30 845 24.95 31.2 88.1 16 3.1 37.5
16:15 1016 30 845 24.95 31.2 88.2 19 5.5 41.9
16:20 1015 29.97 845 24.95 31.2 88.2 17 3.9 39
16:25 1015 29.97 845 24.95 31 87.8 19 5.1 41.2
16:30 1015 29.97 845 24.95 30.4 86.8 20 5 41
16:35 1015 29.97 845 24.95 30.1 86.2 20 5.1 41.1
16:40 1015 29.97 845 24.95 30.2 86.3 21 5.6 42
16:45 1015 29.97 845 24.95 30.2 86.3 22 6.6 43.9
16:50 1015 29.97 845 24.95 29.7 85.5 24 7.4 45.3
16:55 1016 30 845 24.95 29.5 85.1 28 9.3 48.7
17:00 1016 30 845 24.95 29.1 84.3 26 8 46.4
17:05 1016 30 845 24.95 28.8 83.8 24 6.8 44.2
17:10 1016 30 845 24.95 28 82.4 29 8.6 47.4
17:15 1016 30 845 24.95 27 80.6 29 7.9 46.3
17:20 1016 30 845 24.95 26 78.8 26 5.2 41.4
17:25 1015 29.97 845 24.95 26.2 79.1 25 5 41.1
17:30 1015 29.97 845 24.95 26.4 79.4 25 4.9 40.8
17:35 1015 29.97 845 24.95 26.3 79.3 29 7.1 44.9
17:40 1015 29.97 844 24.92 26.1 79.1 28 6.3 43.3
17:45 1015 29.97 844 24.92 26.1 78.9 30 7.2 45
17:50 1015 29.97 844 24.92 25.6 78.1 34 8.8 47.8
17:55 1015 29.97 844 24.92 24.4 76 40 10.1 50.2
18:00 1015 29.97 844 24.92 24 75.3 39 9.3 48.8
18:05 1015 29.97 844 24.92 24.2 75.5 38 9.3 48.8
18:10 1015 29.97 844 24.92 24.3 75.7 37 9 48.2
18:15 1015 29.97 844 24.92 24.3 75.7 36 8.5 47.3
18:20 1016 30 845 24.95 23.9 75.1 41 9.9 49.9
18:25 1016 30 845 24.95 23.4 74.1 34 6.7 44
18:30 1016 30 845 24.95 23.3 73.9 32 5.9 42.6
18:35 1016 30 845 24.95 23.3 73.9 31 5.5 41.9
18:40 1016 30 845 24.95 22.9 73.2 32 5.7 42.2
18:45 1016 30 845 24.95 22.8 73.1 34 6.5 43.6
18:50 1016 30 845 24.95 21.9 71.3 49 10.7 51.2
18:55 1016 30 845 24.95 20.7 69.3 40 6.8 44.2
19:00 1016 30 845 24.95 21.9 71.4 30 3.8 38.8
19:05 1016 30 846 24.98 23.4 74.2 31 5.7 42.3
19:10 1016 30 846 24.98 21.9 71.3 49 10.9 51.6
19:15 1017 30.03 846 24.98 20.7 69.3 46 9 48.1
19:20 1017 30.03 846 24.98 21.1 69.9 47 9.4 48.8
19:25 1017 30.03 846 24.98 20.4 68.6 56 11.4 52.4
19:30 1017 30.03 846 24.98 19.6 67.2 51 9.2 48.5
19:35 1017 30.03 846 24.98 22.1 71.9 37 6.8 44.3
19:40 1017 30.03 846 24.98 20.1 68.2 62 12.8 55
19:45 1017 30.03 846 24.98 19 66.1 54 9.6 49.2
19:50 1017 30.03 846 24.98 20.2 68.4 50 9.5 49
19:55 1017 30.03 847 25.01 20.7 69.3 47 9.1 48.4
20:00 1017 30.03 846 24.98 21.8 71.2 32 4.5 40
20:05 1017 30.03 846 24.98 21.7 71.1 49 10.6 51.2
20:10 1017 30.03 846 24.98 20 68.1 57 11.5 52.7
20:15 1017 30.03 847 25.01 19.5 67.1 59 11.5 52.6
20:20 1017 30.03 847 25.01 19 66.2 59 10.9 51.7
20:25 1018 30.06 847 25.01 19.6 67.2 50 9 48.2
20:30 1017 30.03 847 25.01 20.1 68.3 50 9.7 49.4
20:35 1018 30.06 847 25.01 20.3 68.5 49 9.2 48.6
20:40 1018 30.06 847 25.01 20.8 69.4 44 8.2 46.8
20:45 1018 30.06 847 25.01 20.9 69.6 46 8.8 47.9
20:50 1018 30.06 847 25.01 21.2 70.1 40 7.2 45
20:55 1017 30.03 847 25.01 21.7 71.1 38 6.9 44.4
21:00 1017 30.03 846 24.98 22.4 72.2 34 5.8 42.4
21:05 1017 30.03 846 24.98 22.7 72.9 33 5.8 42.5
21:10 1017 30.03 846 24.98 22.8 73 33 5.7 42.3
21:15 1017 30.03 846 24.98 22.7 72.8 39 8.1 46.7
21:20 1017 30.03 846 24.98 21.5 70.7 42 8.2 46.8
21:25 1017 30.03 846 24.98 21.2 70.2 41 7.6 45.6
21:30 1017 30.03 846 24.98 21.6 70.8 36 6.1 43
21:35 1017 30.03 846 24.98 21.8 71.2 39 7.3 45.1
21:40 1017 30.03 846 24.98 21.5 70.7 40 7.4 45.4
21:45 1017 30.03 846 24.98 21.3 70.4 39 7 44.5
21:50 1016 30 845 24.95 21.8 71.2 34 5.3 41.5
21:55 1016 30 846 24.98 22 71.7 37 6.9 44.4
22:00 1017 30.03 846 24.98 21.5 70.6 39 7 44.6
22:05 1017 30.03 846 24.98 21.2 70.1 39 6.8 44.3
22:10 1017 30.03 846 24.98 21 69.7 40 7.1 44.8
22:15 1017 30.03 846 24.98 20.8 69.4 41 7.2 44.9
22:20 1017 30.03 846 24.98 20.5 68.9 41 7.1 44.8
22:25 1017 30.03 846 24.98 20.2 68.3 44 7.6 45.7
22:30 1017 30.03 846 24.98 19.8 67.6 46 8 46.4
22:35 1017 30.03 846 24.98 19.6 67.2 46 7.8 46.1
22:40 1017 30.03 846 24.98 19.6 67.3 47 8.2 46.7
22:45 1017 30.03 846 24.98 19.5 67.1 47 8.1 46.5
22:50 1017 30.03 846 24.98 19.5 67 47 7.9 46.2
22:55 1017 30.03 846 24.98 19.5 67.1 46 7.7 45.9
23:00 1017 30.03 846 24.98 19.6 67.3 46 7.7 45.9
23:05 1016 30 846 24.98 19.6 67.3 45 7.6 45.7
23:10 1016 30 846 24.98 19.5 67.2 45 7.6 45.6
23:15 1016 30 846 24.98 19.6 67.3 44 7.2 44.9
23:20 1016 30 846 24.98 19.7 67.5 46 7.8 46
23:25 1017 30.03 846 24.98 19.5 67.1 45 7.3 45.1
23:30 1016 30 846 24.98 19.6 67.3 44 7 44.6
23:35 1016 30 846 24.98 19.7 67.4 43 7 44.5
23:40 1016 30 846 24.98 19.8 67.7 42 6.6 43.9
23:45 1016 30 846 24.98 20 68 42 6.7 44.1
23:50 1016 30 846 24.98 19.9 67.7 42 6.8 44.3
23:55 1016 30 846 24.98 20 68 41 6.7 44
24:00 1016 30 846 24.98 20 68.1 40 6.3 43.4